Time;durP1;ratioP1;P1;durP2;ratioP2;P2;SDS_P1;SDS_P2;PMS_P1;PMS_P2;Temp;Humidity;BMP_temperature;BMP_pressure;BME280_temperature;BME280_humidity;BME280_pressure;Samples;Min_cycle;Max_cycle;Signal;HPM_P1;HPM_P2
2021/01/07 00:02:24;;;;;;;51.68;17.75;;;;;;;3.40;95.63;101570.06;1865985;76;20918;-95
2021/01/07 00:04:50;;;;;;;55.17;18.45;;;;;;;3.47;95.80;101564.83;1865861;76;21551;-95
2021/01/07 00:07:16;;;;;;;48.42;16.60;;;;;;;3.53;95.83;101567.22;1865864;75;21175;-94
2021/01/07 00:09:42;;;;;;;49.53;17.80;;;;;;;3.58;95.67;101570.15;1865885;76;20978;-94
2021/01/07 00:12:08;;;;;;;58.00;18.98;;;;;;;3.63;95.59;101571.75;1837214;76;21204;-94
2021/01/07 00:14:34;;;;;;;49.80;17.30;;;;;;;3.64;95.41;101577.38;1865917;76;21131;-94
2021/01/07 00:17:00;;;;;;;53.30;16.95;;;;;;;3.64;95.40;101573.39;1865813;76;21046;-94
2021/01/07 00:19:26;;;;;;;53.87;18.98;;;;;;;3.70;95.31;101578.47;1865761;76;20989;-94
2021/01/07 00:21:52;;;;;;;48.80;19.98;;;;;;;3.75;95.38;101579.55;1836960;76;21613;-94
2021/01/07 00:24:17;;;;;;;47.43;15.88;;;;;;;3.83;95.23;101582.09;1861055;76;21221;-94
2021/01/07 00:26:43;;;;;;;38.92;15.88;;;;;;;3.85;94.92;101580.08;1864037;76;20874;-94
2021/01/07 00:29:09;;;;;;;35.43;14.00;;;;;;;3.88;94.90;101582.84;1862928;76;20972;-94
2021/01/07 00:31:35;;;;;;;30.62;12.63;;;;;;;3.93;94.68;101583.62;1863045;77;20921;-94
2021/01/07 00:34:01;;;;;;;32.23;12.28;;;;;;;3.90;94.41;101589.33;1862879;77;20905;-94
2021/01/07 00:36:27;;;;;;;27.10;10.78;;;;;;;3.90;94.33;101587.48;1862617;77;21192;-94
2021/01/07 00:38:53;;;;;;;29.95;11.68;;;;;;;4.07;94.30;101585.39;1862937;76;21102;-94
2021/01/07 00:41:23;;;;;;;30.43;10.90;;;;;;;4.05;94.04;101572.23;1831717;77;20910;-94
2021/01/07 00:43:50;;;;;;;28.00;11.10;;;;;;;4.06;93.83;101569.90;1862964;76;21107;-94
2021/01/07 00:46:18;;;;;;;21.20;8.75;;;;;;;4.05;93.75;101566.89;1862722;77;21092;-94
2021/01/07 00:48:47;;;;;;;19.60;8.85;;;;;;;4.08;93.63;101568.36;1803563;79;21244;-94
2021/01/07 00:51:13;;;;;;;18.62;7.97;;;;;;;4.04;93.18;101565.26;1803475;79;21226;-95
2021/01/07 00:53:38;;;;;;;18.40;7.67;;;;;;;4.06;93.13;101567.74;1803844;78;21497;-94
2021/01/07 00:56:05;;;;;;;16.05;7.72;;;;;;;4.12;92.96;101562.13;1803555;79;21057;-93
2021/01/07 00:58:31;;;;;;;20.48;9.63;;;;;;;3.95;92.37;101562.92;1803821;79;21163;-94
2021/01/07 01:00:56;;;;;;;18.02;8.38;;;;;;;3.92;92.71;101548.64;1803638;79;21258;-94
2021/01/07 01:03:23;;;;;;;18.50;8.63;;;;;;;3.85;92.56;101540.08;1803693;79;20912;-94
2021/01/07 01:05:49;;;;;;;16.87;8.20;;;;;;;3.79;92.46;101544.00;1803311;79;21190;-94
2021/01/07 01:08:18;;;;;;;18.65;8.33;;;;;;;3.81;92.83;101547.31;1803756;79;21183;-95
2021/01/07 01:10:46;;;;;;;17.80;8.28;;;;;;;3.85;92.76;101537.90;1771853;81;21579;-94
2021/01/07 01:13:12;;;;;;;17.32;7.97;;;;;;;3.92;92.87;101535.31;1771932;81;21255;-93
2021/01/07 01:15:38;;;;;;;20.05;8.83;;;;;;;3.90;92.43;101532.83;1771962;81;21170;-94
2021/01/07 01:18:05;;;;;;;19.17;8.53;;;;;;;3.86;92.30;101529.72;1771786;81;21158;-94
2021/01/07 01:20:31;;;;;;;18.98;8.45;;;;;;;3.83;92.43;101531.95;1771857;81;21134;-94
2021/01/07 01:22:57;;;;;;;23.35;10.03;;;;;;;3.76;92.22;101527.88;1746312;81;21147;-94
2021/01/07 01:25:23;;;;;;;20.75;8.95;;;;;;;3.80;92.47;101533.67;1771737;81;21173;-94
2021/01/07 01:27:49;;;;;;;22.30;9.23;;;;;;;3.79;92.33;101526.16;1756813;81;20974;-95
2021/01/07 01:30:15;;;;;;;20.52;9.70;;;;;;;3.83;92.46;101528.77;1755780;80;21709;-94
2021/01/07 01:32:43;;;;;;;22.75;9.63;;;;;;;3.84;92.35;101526.93;1755623;81;21182;-94
2021/01/07 01:35:11;;;;;;;21.42;8.75;;;;;;;3.86;92.31;101529.72;1755793;81;21648;-94
2021/01/07 01:37:42;;;;;;;22.30;9.30;;;;;;;3.87;92.36;101531.87;1755812;81;21233;-94
2021/01/07 01:40:11;;;;;;;29.12;10.32;;;;;;;3.85;92.31;101528.09;1755639;81;21186;-94
2021/01/07 01:42:37;;;;;;;26.55;9.85;;;;;;;3.85;92.10;101528.09;1755691;81;21127;-94
2021/01/07 01:45:06;;;;;;;24.18;10.15;;;;;;;3.88;92.34;101528.19;1767427;79;21195;-94
2021/01/07 01:47:32;;;;;;;29.67;11.08;;;;;;;3.94;92.39;101523.44;1795721;79;21330;-94
2021/01/07 01:49:58;;;;;;;28.47;10.35;;;;;;;3.95;92.25;101518.92;1795936;79;21171;-94
2021/01/07 01:52:25;;;;;;;26.90;10.10;;;;;;;3.93;92.04;101518.28;1795845;79;21020;-94
2021/01/07 01:54:52;;;;;;;25.97;9.70;;;;;;;3.86;92.12;101516.91;1795704;79;21135;-94
2021/01/07 01:57:19;;;;;;;21.57;8.68;;;;;;;3.84;92.25;101510.93;1795909;79;21125;-94
2021/01/07 01:59:45;;;;;;;23.90;9.38;;;;;;;3.84;92.34;101516.27;1795763;79;21216;-94
2021/01/07 02:02:17;;;;;;;24.67;10.10;;;;;;;3.82;92.46;101518.29;1795955;79;21636;-95
2021/01/07 02:04:47;;;;;;;26.95;9.20;;;;;;;3.86;92.65;101516.91;1795966;79;21154;-94
2021/01/07 02:07:21;;;;;;;26.65;9.65;;;;;;;3.86;92.63;101519.57;1803328;78;21178;-93
2021/01/07 02:09:49;;;;;;;34.20;10.72;;;;;;;3.91;92.66;101524.31;1759356;81;21119;-93
2021/01/07 02:12:15;;;;;;;33.08;10.95;;;;;;;3.92;92.87;101521.98;1762649;81;21127;-94
2021/01/07 02:14:43;;;;;;;39.50;11.28;;;;;;;4.04;92.55;101521.77;1762888;81;21147;-93
2021/01/07 02:17:11;;;;;;;48.60;13.58;;;;;;;4.09;92.37;101515.34;1762571;81;21229;-93
2021/01/07 02:19:37;;;;;;;46.15;13.38;;;;;;;4.05;92.53;101509.55;1762746;81;21648;-94
2021/01/07 02:22:05;;;;;;;42.58;11.50;;;;;;;4.03;92.64;101513.42;1733790;81;39110;-93
2021/01/07 02:24:32;;;;;;;37.48;10.28;;;;;;;4.20;92.23;101521.45;1762548;81;21489;-93
2021/01/07 02:27:03;;;;;;;25.88;8.28;;;;;;;4.02;93.07;101515.27;1762559;81;21139;-93
2021/01/07 02:29:29;;;;;;;34.48;7.42;;;;;;;4.08;92.71;101512.34;1763137;81;21143;-93
2021/01/07 02:31:55;;;;;;;24.90;6.95;;;;;;;4.04;92.97;101515.91;1763364;81;21747;-93
2021/01/07 02:34:20;;;;;;;23.70;7.35;;;;;;;4.02;93.00;101523.28;1763404;81;20973;-94
2021/01/07 02:36:46;;;;;;;22.37;6.55;;;;;;;4.06;92.78;101513.07;1763338;81;21022;-93
2021/01/07 02:39:12;;;;;;;20.55;5.45;;;;;;;4.10;92.47;101499.14;1763450;81;21770;-93
2021/01/07 02:41:38;;;;;;;18.45;6.65;;;;;;;4.00;92.86;101500.00;1763257;81;20988;-93
2021/01/07 02:44:04;;;;;;;32.67;6.70;;;;;;;3.95;93.24;101499.75;1763335;81;21156;-94
2021/01/07 02:46:30;;;;;;;16.37;5.03;;;;;;;3.86;94.40;101502.24;1763412;81;20905;-93
2021/01/07 02:48:56;;;;;;;16.45;5.58;;;;;;;3.92;94.11;101504.65;1763205;81;20921;-94
2021/01/07 02:51:22;;;;;;;22.05;5.53;;;;;;;3.88;94.14;101502.85;1763510;81;21237;-93
2021/01/07 02:53:48;;;;;;;21.52;5.92;;;;;;;3.91;93.98;101494.47;1763082;81;20976;-93
2021/01/07 02:56:14;;;;;;;17.80;5.70;;;;;;;3.95;94.08;101500.27;1763021;81;20965;-92
2021/01/07 02:58:39;;;;;;;22.13;5.70;;;;;;;3.96;94.25;101502.72;1763357;81;20972;-93
2021/01/07 03:01:05;;;;;;;22.52;5.53;;;;;;;3.98;94.30;101502.03;1763369;81;20952;-93
2021/01/07 03:03:31;;;;;;;39.63;6.53;;;;;;;4.01;94.19;101493.64;1763322;81;21934;-93
2021/01/07 03:05:57;;;;;;;24.67;6.30;;;;;;;4.02;94.11;101491.27;1790255;76;20996;-93
2021/01/07 03:08:23;;;;;;;33.23;5.92;;;;;;;4.02;94.18;101499.79;1861001;76;20901;-93
2021/01/07 03:10:49;;;;;;;27.30;5.90;;;;;;;3.98;94.05;101481.20;1865702;76;21124;-94
2021/01/07 03:13:15;;;;;;;39.53;6.05;;;;;;;4.00;94.03;101497.33;1865816;76;21111;-94
2021/01/07 03:15:41;;;;;;;30.43;6.35;;;;;;;3.91;94.52;101499.80;1865759;76;21182;-93
2021/01/07 03:18:07;;;;;;;27.00;6.53;;;;;;;3.92;94.50;101511.31;1865740;76;20972;-93
2021/01/07 03:20:33;;;;;;;29.90;6.40;;;;;;;3.78;94.74;101497.05;1865598;76;21115;-93
2021/01/07 03:22:58;;;;;;;22.37;5.85;;;;;;;3.86;94.84;101511.58;1865708;76;21489;-93
2021/01/07 03:25:24;;;;;;;22.37;6.55;;;;;;;3.88;94.73;101504.19;1865775;76;20933;-93
2021/01/07 03:27:50;;;;;;;23.85;6.05;;;;;;;3.88;94.62;101502.85;1865848;76;21340;-94
2021/01/07 03:30:17;;;;;;;21.20;6.03;;;;;;;3.86;94.82;101509.73;1836974;76;20933;-93
2021/01/07 03:32:43;;;;;;;17.07;5.85;;;;;;;3.79;94.90;101507.50;1865924;76;21131;-94
2021/01/07 03:35:10;;;;;;;16.02;6.17;;;;;;;3.81;94.91;101499.32;1865980;76;21040;-93
2021/01/07 03:37:36;;;;;;;15.75;5.47;;;;;;;3.74;95.42;101491.79;1865812;76;21091;-93
2021/01/07 03:40:04;;;;;;;16.82;6.03;;;;;;;3.64;96.00;101492.91;1866002;76;21190;-93
2021/01/07 03:42:30;;;;;;;15.93;5.87;;;;;;;3.57;96.50;101487.23;1865942;76;21166;-94
2021/01/07 03:44:56;;;;;;;15.55;5.62;;;;;;;3.39;97.54;101483.69;1865748;75;21115;-94
2021/01/07 03:47:22;;;;;;;19.27;6.25;;;;;;;3.30;98.87;101489.64;1865900;76;20957;-93
2021/01/07 03:49:47;;;;;;;21.68;7.03;;;;;;;3.31;99.07;101489.12;1865972;76;20962;-93
2021/01/07 03:52:13;;;;;;;22.20;7.28;;;;;;;3.28;99.16;101491.66;1865826;76;21062;-94
2021/01/07 03:54:39;;;;;;;21.05;7.30;;;;;;;3.34;98.71;101493.56;1865889;76;21016;-93
2021/01/07 03:57:06;;;;;;;15.55;5.25;;;;;;;3.39;98.39;101495.67;1865778;76;20905;-94
2021/01/07 03:59:35;;;;;;;21.45;5.87;;;;;;;3.46;98.10;101496.55;1865866;76;21033;-93
2021/01/07 04:02:01;;;;;;;27.00;6.20;;;;;;;3.37;98.76;101492.36;1865748;76;21087;-94
2021/01/07 04:04:27;;;;;;;19.05;5.40;;;;;;;3.29;99.84;101488.48;1866002;76;21155;-94
2021/01/07 04:06:53;;;;;;;32.90;9.25;;;;;;;3.19;100.00;101486.95;1865617;76;21284;-94
2021/01/07 04:09:19;;;;;;;39.70;11.35;;;;;;;3.17;100.00;101485.49;1866189;76;21100;-94
2021/01/07 04:11:45;;;;;;;27.37;8.58;;;;;;;3.31;100.00;101485.95;1865956;76;21020;-94
2021/01/07 04:14:11;;;;;;;32.50;9.45;;;;;;;3.34;100.00;101483.42;1865855;76;20910;-94
2021/01/07 04:16:37;;;;;;;22.85;7.58;;;;;;;3.33;100.00;101484.45;1866083;76;21090;-93
2021/01/07 04:19:03;;;;;;;28.12;8.08;;;;;;;3.26;100.00;101480.36;1865748;76;20914;-93
2021/01/07 04:21:29;;;;;;;22.95;6.47;;;;;;;3.20;100.00;101465.14;1865875;76;21595;-93
2021/01/07 04:23:54;;;;;;;15.30;6.22;;;;;;;3.11;100.00;101459.11;1837117;76;20992;-93
2021/01/07 04:26:23;;;;;;;19.45;6.47;;;;;;;3.15;100.00;101457.73;1866096;76;21134;-93
2021/01/07 04:28:49;;;;;;;17.50;5.20;;;;;;;3.08;100.00;101448.02;1865831;76;21129;-94
2021/01/07 04:31:15;;;;;;;17.20;5.67;;;;;;;3.04;100.00;101432.93;1865851;76;20925;-93
2021/01/07 04:33:41;;;;;;;21.00;5.55;;;;;;;3.08;100.00;101433.37;1866180;76;21087;-94
2021/01/07 04:36:07;;;;;;;17.70;5.67;;;;;;;2.85;100.00;101426.37;1865692;76;20925;-94
2021/01/07 04:38:33;;;;;;;24.18;6.85;;;;;;;2.89;100.00;101425.51;1865773;76;21133;-94
2021/01/07 04:40:59;;;;;;;17.90;5.92;;;;;;;3.02;100.00;101432.80;1865471;76;21180;-94
2021/01/07 04:43:25;;;;;;;20.52;6.72;;;;;;;3.19;100.00;101428.37;1865812;76;20976;-93
2021/01/07 04:45:51;;;;;;;22.07;7.78;;;;;;;3.12;100.00;101419.50;1865853;76;21136;-93
2021/01/07 04:48:18;;;;;;;27.07;8.88;;;;;;;3.23;100.00;101437.30;1865878;76;20977;-93
2021/01/07 04:50:44;;;;;;;25.05;7.62;;;;;;;3.37;100.00;101447.89;1865716;76;22167;-94
2021/01/07 04:53:10;;;;;;;19.77;7.75;;;;;;;3.52;100.00;101446.48;1865955;76;21632;-93
2021/01/07 04:55:36;;;;;;;31.52;9.10;;;;;;;3.50;100.00;101425.89;1865890;76;21115;-93
2021/01/07 04:58:02;;;;;;;27.48;8.28;;;;;;;3.34;100.00;101408.83;1866104;76;21079;-94
2021/01/07 05:00:30;;;;;;;21.97;7.58;;;;;;;3.21;100.00;101396.71;1837340;76;20890;-94
2021/01/07 05:02:56;;;;;;;25.55;8.25;;;;;;;3.41;100.00;101396.37;1866019;76;21123;-94
2021/01/07 05:05:23;;;;;;;25.82;8.78;;;;;;;3.32;100.00;101389.03;1865823;76;21238;-93
2021/01/07 05:07:49;;;;;;;23.60;7.08;;;;;;;3.21;100.00;101388.72;1865791;76;21156;-92
2021/01/07 05:10:15;;;;;;;21.68;7.70;;;;;;;3.15;100.00;101400.48;1865897;75;21541;-92
2021/01/07 05:12:41;;;;;;;27.30;8.30;;;;;;;3.30;100.00;101406.25;1865875;76;21087;-93
2021/01/07 05:15:09;;;;;;;25.45;8.13;;;;;;;3.25;100.00;101401.99;1860854;76;21001;-93
2021/01/07 05:17:37;;;;;;;26.70;7.95;;;;;;;3.32;100.00;101399.69;1865678;76;21131;-92
2021/01/07 05:20:11;;;;;;;34.78;9.73;;;;;;;3.34;100.00;101402.17;1865456;76;21215;-93
2021/01/07 05:22:42;;;;;;;32.35;9.83;;;;;;;3.41;100.00;101392.38;1865929;76;21169;-93
2021/01/07 05:25:12;;;;;;;26.50;8.53;;;;;;;3.45;100.00;101380.34;1794683;79;21137;-92
2021/01/07 05:27:42;;;;;;;25.75;8.25;;;;;;;3.44;100.00;101382.67;1780165;80;21200;-92
2021/01/07 05:30:11;;;;;;;26.80;8.05;;;;;;;3.51;100.00;101391.55;1745912;82;22022;-92
2021/01/07 05:32:41;;;;;;;21.75;7.08;;;;;;;3.62;100.00;101400.36;1746160;82;21142;-91
2021/01/07 05:35:10;;;;;;;24.23;8.23;;;;;;;3.59;100.00;101399.41;1746286;82;21615;-92
2021/01/07 05:37:38;;;;;;;30.88;9.25;;;;;;;3.62;100.00;101391.55;1746194;82;21289;-92
2021/01/07 05:40:08;;;;;;;32.83;10.88;;;;;;;3.78;100.00;101394.41;1746188;82;21241;-91
2021/01/07 05:42:45;;;;;;;22.93;9.00;;;;;;;3.77;100.00;101395.44;1746371;82;21329;-92
2021/01/07 05:45:17;;;;;;;19.75;7.03;;;;;;;3.83;100.00;101379.48;1745975;82;21208;-92
2021/01/07 05:47:52;;;;;;;17.07;6.42;;;;;;;3.90;100.00;101372.84;1746197;82;21161;-92
2021/01/07 05:50:20;;;;;;;17.07;5.87;;;;;;;3.85;100.00;101375.27;1746178;82;21169;-92
2021/01/07 05:52:49;;;;;;;21.42;7.30;;;;;;;3.95;100.00;101388.27;1746057;82;21209;-92
2021/01/07 05:55:19;;;;;;;15.53;6.33;;;;;;;4.04;100.00;101395.09;1746183;82;21917;-92
2021/01/07 05:57:45;;;;;;;22.00;7.78;;;;;;;4.08;100.00;101390.47;1746154;82;20952;-92
2021/01/07 06:00:15;;;;;;;23.75;7.22;;;;;;;4.14;100.00;101384.05;1746344;82;21562;-92
2021/01/07 06:02:44;;;;;;;18.73;7.75;;;;;;;4.08;100.00;101376.33;1742481;82;21165;-92
2021/01/07 06:05:14;;;;;;;17.87;6.90;;;;;;;4.19;100.00;101368.28;1695867;84;21678;-93
2021/01/07 06:07:40;;;;;;;17.60;7.03;;;;;;;4.10;100.00;101365.77;1645908;87;21897;-92
2021/01/07 06:10:09;;;;;;;19.42;7.78;;;;;;;4.28;100.00;101361.23;1646327;86;21751;-92
2021/01/07 06:12:37;;;;;;;22.82;8.38;;;;;;;4.30;100.00;101363.72;1646386;87;21246;-93
2021/01/07 06:15:24;;;;;;;19.65;7.78;;;;;;;4.35;100.00;101366.59;1655490;85;21266;-93
2021/01/07 06:17:51;;;;;;;21.40;7.92;;;;;;;4.42;100.00;101357.30;1542132;93;21217;-93
2021/01/07 06:20:20;;;;;;;18.90;7.37;;;;;;;4.50;100.00;101365.95;1541895;93;21206;-93
2021/01/07 06:22:50;;;;;;;20.95;7.35;;;;;;;4.45;100.00;101365.72;1542056;93;21139;-93
2021/01/07 06:25:19;;;;;;;20.82;7.80;;;;;;;4.49;100.00;101362.95;1542835;92;21224;-92
2021/01/07 06:27:47;;;;;;;22.58;8.00;;;;;;;4.48;100.00;101359.98;1539217;93;21664;-93
2021/01/07 06:30:18;;;;;;;24.32;9.05;;;;;;;4.67;100.00;101356.22;1538127;92;21201;-93
2021/01/07 06:33:01;;;;;;;28.30;9.25;;;;;;;4.66;100.00;101363.94;1535691;92;21209;-93
2021/01/07 06:35:40;;;;;;;30.35;9.20;;;;;;;4.69;100.00;101356.34;1490412;94;21221;-94
2021/01/07 06:38:07;;;;;;;25.43;8.75;;;;;;;4.76;100.00;101358.53;1495621;93;21295;-92
2021/01/07 06:40:40;;;;;;;29.75;9.15;;;;;;;4.70;100.00;101357.16;1517938;94;21203;-93
2021/01/07 06:43:19;;;;;;;38.55;9.83;;;;;;;4.80;100.00;101360.27;1517995;93;21199;-92
2021/01/07 06:45:54;;;;;;;31.60;10.53;;;;;;;4.92;100.00;101362.65;1518654;93;21510;-93
2021/01/07 06:48:32;;;;;;;40.03;12.82;;;;;;;5.00;100.00;101363.80;1517790;94;21234;-92
2021/01/07 06:51:00;;;;;;;30.97;11.18;;;;;;;5.05;100.00;101360.50;1471089;97;21219;-91
2021/01/07 06:53:28;;;;;;;34.00;11.53;;;;;;;5.27;100.00;101359.80;1471161;97;21171;-92
2021/01/07 06:56:18;;;;;;;34.27;11.45;;;;;;;5.36;100.00;101352.41;1471134;97;21352;-92
2021/01/07 06:58:46;;;;;;;31.57;10.05;;;;;;;5.45;100.00;101353.31;1428345;100;21305;-92
2021/01/07 07:01:16;;;;;;;33.00;10.90;;;;;;;5.49;100.00;101354.23;1433428;98;21303;-92
2021/01/07 07:03:53;;;;;;;29.67;10.32;;;;;;;5.53;100.00;101351.44;1439865;99;21301;-92
2021/01/07 07:06:25;;;;;;;29.35;10.58;;;;;;;5.66;100.00;101350.10;1441426;98;21411;-92
2021/01/07 07:08:51;;;;;;;27.48;9.38;;;;;;;5.73;100.00;101346.07;1443501;98;21242;-91
2021/01/07 07:11:33;;;;;;;29.32;10.30;;;;;;;5.82;100.00;101342.95;1441453;98;22018;-92
2021/01/07 07:14:01;;;;;;;29.77;10.95;;;;;;;5.87;100.00;101341.81;1441408;99;21238;-91
2021/01/07 07:16:33;;;;;;;32.67;10.85;;;;;;;5.89;100.00;101340.28;1437203;98;21163;-92
2021/01/07 07:18:59;;;;;;;31.93;11.60;;;;;;;5.84;100.00;101335.55;1430282;100;21235;-92
2021/01/07 07:21:25;;;;;;;31.65;10.93;;;;;;;6.00;100.00;101329.45;1430130;100;21700;-92
2021/01/07 07:23:56;;;;;;;28.80;10.08;;;;;;;6.05;100.00;101330.98;1430147;100;21307;-92
2021/01/07 07:26:40;;;;;;;29.75;10.70;;;;;;;6.03;100.00;101327.20;1430079;100;21285;-92
2021/01/07 07:29:12;;;;;;;27.10;10.15;;;;;;;6.07;100.00;101316.89;1450833;98;21810;-91
2021/01/07 07:31:42;;;;;;;22.32;9.30;;;;;;;6.17;99.99;101319.92;1458423;97;21170;-92
2021/01/07 07:34:09;;;;;;;23.35;8.05;;;;;;;6.30;99.90;101319.88;1472647;97;21213;-92
2021/01/07 07:36:35;;;;;;;21.77;8.38;;;;;;;6.38;99.56;101313.44;1474601;97;21266;-89
2021/01/07 07:39:04;;;;;;;21.07;7.83;;;;;;;6.45;99.60;101312.91;1454904;97;21229;-92
2021/01/07 07:41:33;;;;;;;19.07;7.67;;;;;;;6.42;99.33;101308.50;1472384;97;21360;-92
2021/01/07 07:43:59;;;;;;;18.25;7.40;;;;;;;6.70;98.88;101312.13;1469760;97;21265;-92
2021/01/07 07:46:26;;;;;;;21.62;7.55;;;;;;;6.55;98.48;101315.92;1472703;97;21051;-92
2021/01/07 07:49:00;;;;;;;19.62;7.28;;;;;;;6.72;98.11;101310.88;1472573;97;21413;-92
2021/01/07 07:51:27;;;;;;;18.75;7.55;;;;;;;6.73;97.91;101305.81;1525926;92;21116;-92
2021/01/07 07:54:11;;;;;;;18.60;6.85;;;;;;;6.75;97.40;101299.73;1544120;92;21176;-94
2021/01/07 07:56:38;;;;;;;15.23;7.08;;;;;;;6.75;97.64;101300.25;1497137;95;21737;-93
2021/01/07 07:59:06;;;;;;;19.23;7.65;;;;;;;6.91;97.28;101304.25;1497103;95;21755;-93
2021/01/07 08:01:47;;;;;;;19.17;7.45;;;;;;;6.99;96.97;101308.00;1518298;92;21201;-94
2021/01/07 08:04:18;;;;;;;17.62;7.40;;;;;;;7.03;97.04;101302.00;1544272;91;21229;-92
2021/01/07 08:06:46;;;;;;;13.88;5.90;;;;;;;7.15;96.89;101294.07;1544394;92;21266;-93
2021/01/07 08:09:18;;;;;;;13.68;5.65;;;;;;;7.04;95.75;101282.19;1544339;91;21682;-93
2021/01/07 08:11:52;;;;;;;13.35;5.72;;;;;;;7.15;95.59;101283.34;1544337;92;21197;-90
2021/01/07 08:14:25;;;;;;;17.60;6.92;;;;;;;7.21;95.80;101282.98;1545056;91;21197;-90
2021/01/07 08:16:59;;;;;;;16.77;7.03;;;;;;;6.94;95.31;101279.70;1570981;90;21316;-92
2021/01/07 08:19:35;;;;;;;17.40;7.05;;;;;;;6.80;95.92;101274.45;1527161;94;21661;-91
2021/01/07 08:22:03;;;;;;;19.37;7.35;;;;;;;7.05;96.30;101275.78;1527063;94;21227;-91
2021/01/07 08:24:29;;;;;;;39.05;12.00;;;;;;;7.14;96.40;101270.16;1526857;93;21170;-91
2021/01/07 08:27:09;;;;;;;39.83;12.53;;;;;;;7.29;96.59;101262.58;1526742;93;21204;-90
2021/01/07 08:29:39;;;;;;;36.48;11.15;;;;;;;7.37;96.19;101258.27;1526817;94;21260;-91
2021/01/07 08:32:08;;;;;;;26.12;8.80;;;;;;;7.57;95.91;101262.09;1526921;93;21184;-90
2021/01/07 08:34:34;;;;;;;41.92;13.35;;;;;;;7.66;94.52;101252.70;1526928;93;21212;-90
2021/01/07 08:37:10;;;;;;;26.40;8.35;;;;;;;7.61;94.39;101259.25;1506809;93;21244;-91
2021/01/07 08:39:38;;;;;;;17.87;6.08;;;;;;;7.69;93.90;101256.80;1519205;93;21893;-89
2021/01/07 08:42:05;;;;;;;29.95;10.40;;;;;;;7.63;93.62;101259.05;1490347;95;21283;-90
2021/01/07 08:44:32;;;;;;;17.65;6.80;;;;;;;7.64;93.57;101249.41;1490362;96;21229;-90
2021/01/07 08:46:58;;;;;;;19.25;7.95;;;;;;;7.69;94.02;101244.20;1490412;96;21255;-90
2021/01/07 08:49:24;;;;;;;71.12;19.62;;;;;;;7.79;94.23;101240.17;1490485;95;21085;-92
2021/01/07 08:51:55;;;;;;;62.62;20.05;;;;;;;7.89;93.93;101241.81;1508570;94;21237;-92
2021/01/07 08:54:21;;;;;;;22.75;7.78;;;;;;;7.91;93.16;101236.52;1514111;94;21309;-92
2021/01/07 08:56:49;;;;;;;54.85;15.43;;;;;;;7.98;92.81;101234.27;1485405;96;21214;-91
2021/01/07 08:59:33;;;;;;;17.37;7.03;;;;;;;7.98;92.50;101230.25;1462780;97;21273;-91
2021/01/07 09:02:10;;;;;;;12.37;4.62;;;;;;;8.04;92.36;101223.97;1485543;96;21229;-91
2021/01/07 09:04:40;;;;;;;13.18;5.22;;;;;;;8.11;91.82;101216.63;1485519;96;22050;-92
2021/01/07 09:07:17;;;;;;;18.07;7.17;;;;;;;8.07;91.21;101219.48;1485457;96;21341;-93
2021/01/07 09:09:57;;;;;;;16.67;6.47;;;;;;;8.09;91.44;101208.82;1485447;96;21176;-92
2021/01/07 09:12:30;;;;;;;17.82;7.05;;;;;;;8.07;90.91;101212.25;1485467;96;21245;-92
2021/01/07 09:15:09;;;;;;;;;;;;;;;8.11;90.99;101204.55;1492214;93;21338;-92
2021/01/07 09:17:52;;;;;;;26.05;9.03;;;;;;;7.98;90.28;101203.41;1537246;92;20351;-93
2021/01/07 09:20:22;;;;;;;31.85;11.05;;;;;;;8.06;90.85;101199.88;1586758;89;21241;-93
2021/01/07 09:22:49;;;;;;;22.62;7.70;;;;;;;8.01;90.67;101192.22;1586883;89;21268;-92
2021/01/07 09:25:19;;;;;;;28.20;9.48;;;;;;;8.05;90.79;101183.99;1586839;90;21261;-91
2021/01/07 09:27:51;;;;;;;18.48;8.13;;;;;;;8.07;90.73;101180.04;1586817;89;21226;-93
2021/01/07 09:30:18;;;;;;;20.55;7.95;;;;;;;8.05;90.51;101173.26;1586957;89;21302;-92
2021/01/07 09:32:45;;;;;;;19.65;8.08;;;;;;;8.05;90.09;101169.23;1586704;89;21229;-92
2021/01/07 09:35:12;;;;;;;23.35;8.63;;;;;;;8.08;90.65;101166.90;1586720;89;21220;-92
2021/01/07 09:37:38;;;;;;;25.95;8.73;;;;;;;8.02;89.90;101153.58;1586967;90;21145;-92
2021/01/07 09:40:06;;;;;;;39.18;11.43;;;;;;;8.04;90.51;101154.99;1671320;84;21068;-92
2021/01/07 09:42:32;;;;;;;38.85;11.12;;;;;;;8.10;90.51;101158.10;1674967;84;21683;-92
2021/01/07 09:45:01;;;;;;;19.25;7.83;;;;;;;8.10;90.73;101164.81;1674795;84;21093;-92
2021/01/07 09:47:27;;;;;;;11.57;5.28;;;;;;;8.28;90.24;101149.16;1586300;89;21179;-92
2021/01/07 09:49:54;;;;;;;13.90;6.60;;;;;;;8.22;89.73;101142.02;1586364;90;21222;-93
2021/01/07 09:52:20;;;;;;;18.35;6.37;;;;;;;8.13;89.03;101142.88;1586235;89;21182;-92
2021/01/07 09:54:46;;;;;;;16.30;6.35;;;;;;;8.24;88.68;101137.78;1586147;89;21755;-91
2021/01/07 09:57:12;;;;;;;22.35;8.00;;;;;;;8.01;88.16;101131.83;1582755;89;21076;-91
2021/01/07 09:59:38;;;;;;;27.60;10.10;;;;;;;8.03;88.73;101131.05;1565851;90;21175;-91
2021/01/07 10:02:08;;;;;;;24.18;8.20;;;;;;;8.08;89.62;101130.66;1586187;89;21025;-91
2021/01/07 10:04:35;;;;;;;16.45;7.17;;;;;;;8.20;89.45;101114.05;1583576;89;21194;-91
2021/01/07 10:07:01;;;;;;;13.68;5.90;;;;;;;8.01;89.12;101107.14;1586092;89;21939;-91
2021/01/07 10:09:27;;;;;;;17.60;7.83;;;;;;;7.88;89.68;101103.30;1586183;89;21199;-88
2021/01/07 10:11:56;;;;;;;16.30;7.05;;;;;;;7.99;90.27;101117.28;1586007;89;21266;-90
2021/01/07 10:14:24;;;;;;;13.78;6.62;;;;;;;7.95;89.47;101104.04;1586174;89;21274;-89
2021/01/07 10:16:57;;;;;;;14.85;6.17;;;;;;;7.90;90.20;101099.34;1583780;89;21154;-90
2021/01/07 10:19:26;;;;;;;16.23;6.37;;;;;;;7.84;90.74;101093.56;1519192;94;21247;-90
2021/01/07 10:22:09;;;;;;;16.90;6.80;;;;;;;7.53;91.48;101082.56;1495352;95;21268;-93
2021/01/07 10:24:46;;;;;;;16.60;7.15;;;;;;;7.66;91.37;101077.53;1535822;93;21561;-89
2021/01/07 10:27:16;;;;;;;50.38;14.18;;;;;;;7.38;92.86;101072.25;1496100;94;21231;-89
2021/01/07 10:29:43;;;;;;;24.60;8.78;;;;;;;7.32;92.96;101059.72;1496317;95;21227;-89
2021/01/07 10:32:18;;;;;;;21.02;7.28;;;;;;;7.10;94.17;101058.06;1478227;95;21300;-89
2021/01/07 10:34:50;;;;;;;20.72;9.43;;;;;;;7.00;94.96;101044.36;1473951;97;21260;-88
2021/01/07 10:37:22;;;;;;;22.32;9.00;;;;;;;7.17;94.28;101037.34;1474037;97;21229;-89
2021/01/07 10:39:50;;;;;;;19.12;8.08;;;;;;;7.26;94.64;101053.43;1474164;97;21742;-88
2021/01/07 10:42:18;;;;;;;17.62;7.60;;;;;;;7.28;94.27;101058.02;1474042;97;21272;-88
2021/01/07 10:44:46;;;;;;;24.20;7.97;;;;;;;7.35;94.25;101047.20;1490481;95;21417;-88
2021/01/07 10:47:15;;;;;;;22.95;8.80;;;;;;;7.39;93.90;101039.55;1499199;95;21226;-89
2021/01/07 10:49:46;;;;;;;60.03;15.43;;;;;;;7.30;94.48;101040.91;1499278;95;21632;-90
2021/01/07 10:52:33;;;;;;;21.55;8.05;;;;;;;7.37;94.43;101048.33;1478145;95;21226;-89
2021/01/07 10:55:19;;;;;;;19.98;7.42;;;;;;;7.26;95.12;101047.23;1499243;95;21292;-91
2021/01/07 10:58:27;;;;;;;22.22;8.90;;;;;;;7.36;95.14;101030.09;1496317;95;21405;-88
2021/01/07 11:01:41;;;;;;;18.27;7.92;;;;;;;7.16;96.62;101022.84;1499180;95;21232;-89
2021/01/07 11:04:35;;;;;;;18.62;8.00;;;;;;;7.27;96.04;101010.02;1499226;95;28414;-87
2021/01/07 11:07:22;;;;;;;17.70;7.92;;;;;;;7.25;96.77;101010.23;1497809;95;21219;-87
2021/01/07 11:09:51;;;;;;;24.55;9.60;;;;;;;7.31;96.42;100995.09;1474594;96;21661;-86
2021/01/07 11:12:24;;;;;;;21.68;8.53;;;;;;;7.44;96.10;100982.86;1488194;95;21236;-87
2021/01/07 11:15:00;;;;;;;20.90;7.97;;;;;;;7.37;97.08;100974.08;1475134;97;21233;-87
2021/01/07 11:17:32;;;;;;;16.87;7.08;;;;;;;7.45;96.64;100960.88;1501573;94;21143;-90
2021/01/07 11:20:03;;;;;;;19.35;7.37;;;;;;;7.41;96.90;100942.25;1506322;95;21258;-90
2021/01/07 11:22:32;;;;;;;30.45;8.43;;;;;;;7.12;98.89;100918.46;1506161;95;21289;-88
2021/01/07 11:24:58;;;;;;;30.55;9.50;;;;;;;7.27;98.75;100931.75;1546558;92;22017;-88
2021/01/07 11:27:25;;;;;;;38.90;13.10;;;;;;;7.41;97.93;100936.39;1552845;92;21173;-90
2021/01/07 11:29:54;;;;;;;52.10;16.75;;;;;;;7.58;97.69;100938.38;1552836;92;21228;-91
2021/01/07 11:32:21;;;;;;;20.08;7.62;;;;;;;7.56;97.83;100939.97;1552842;91;21645;-90